Impacts TAF Board INFO
FOR SITUATIONAL AWARENESS. NOT TO BE USED FOR FLIGHT PLANNING PURPOSES.
IDs:

KORD - Chicago/O'Hare Intl, IL, US

Issued at 0350 UTC 17 Aug 2018
Updated at 0522 UTC 17 Aug 2018
Potential Impact None Slight Moderate High
Time0520Z 17/06Z 17/07Z 17/08Z 17/09Z 17/10Z 17/11Z 17/12Z 17/13Z 17/14Z 17/15Z 17/16Z 17/17Z 17/18Z>>
Type OBS PRVL PRVL PRVL PRVL PRVL PRVL PRVL PRVL PRVL PRVL PRVL PRVL PRVL
VIS 2.5 6 6 6 6 6 6 6 6 >6 >6 >6 >6 >6
CIG 30 50 50 35 35 35 35 35 35 35 35 35 35 40
Cover OVC BKN BKN BKN BKN BKN BKN BKN BKN BKN BKN BKN BKN BKN
FltCat IFR VFR VFR VFR VFR VFR VFR VFR VFR VFR VFR VFR VFR VFR
WX +RA -SHRA VCTS -SHRA VCTS BR VCSH BR VCSH BR VCSH BR VCSH BR VCSH BR VCSH -- -- -- -- --
WDir 290 VRB VRB VRB VRB VRB VRB VRB VRB 20 20 20 20 50
WSpd 11 3 3 3 3 3 3 3 3 5 5 5 5 9
WGst 17 -- -- -- -- -- -- -- -- -- -- -- -- --

Raw TAF
KORD 170350Z 1704/1806 VRB03KT 6SM -SHRA VCTS SCT025 BKN050CB
  TEMPO 1705/1706 28015G25KT 2SM TSRA BKN015 OVC025CB
  FM170800 VRB03KT 6SM BR VCSH SCT020 BKN035
  FM171400 02005KT P6SM SCT020 BKN035
  FM171800 05009KT P6SM BKN040
  FM180000 04008KT P6SM FEW050


Raw METAR
KORD 170520Z 29011G17KT 2 1/2SM +RA SCT019 BKN030 OVC040 22/19 A2995 RMK AO2 LTG DSNT ALQDS RAB16 OCNL LTGIC DSNT SW-NW CB DSNT SW-NW P0000 T02220189
KORD 170451Z 08004KT 10SM FEW020 SCT042 OVC075 25/21 A2995 RMK AO2 LTG DSNT SW-NW RAB28E42 SLP135 OCNL LTGIC DSNT SW-NW CB DSNT SW-NW P0000 T02500206
KORD 170351Z 09005KT 10SM BKN080 BKN100 25/21 A2995 RMK AO2 SLP137 T02500206
KORD 170251Z 08006KT 10SM BKN090 BKN250 25/20 A2993 RMK AO2 SLP129 T02500200 53006

METAR Board
Radar Display
Forecast Discussion

FOR SITUATIONAL AWARENESS. NOT TO BE USED FOR FLIGHT PLANNING PURPOSES.